sensor_id;sensor_type;location;lat;lon;timestamp;P1;durP1;ratioP1;P2;durP2;ratioP2
24445;SDS011;13347;50.984;5.822;2022-10-03T00:00:20;151.90;;;143.27;;
24445;SDS011;13347;50.984;5.822;2022-10-03T00:05:43;124.82;;;117.75;;
24445;SDS011;13347;50.984;5.822;2022-10-03T00:08:24;110.20;;;103.20;;
24445;SDS011;13347;50.984;5.822;2022-10-03T00:11:03;91.10;;;85.32;;
24445;SDS011;13347;50.984;5.822;2022-10-03T00:13:45;79.57;;;74.25;;
24445;SDS011;13347;50.984;5.822;2022-10-03T00:16:22;80.78;;;75.75;;
24445;SDS011;13347;50.984;5.822;2022-10-03T00:19:01;97.53;;;91.55;;
24445;SDS011;13347;50.984;5.822;2022-10-03T00:21:38;67.85;;;63.05;;
24445;SDS011;13347;50.984;5.822;2022-10-03T00:24:23;95.93;;;90.25;;
24445;SDS011;13347;50.984;5.822;2022-10-03T00:27:02;68.60;;;63.47;;
24445;SDS011;13347;50.984;5.822;2022-10-03T00:29:35;77.88;;;72.63;;
24445;SDS011;13347;50.984;5.822;2022-10-03T00:32:16;72.70;;;67.30;;
24445;SDS011;13347;50.984;5.822;2022-10-03T00:35:02;74.60;;;69.38;;
24445;SDS011;13347;50.984;5.822;2022-10-03T00:37:39;74.72;;;69.35;;
24445;SDS011;13347;50.984;5.822;2022-10-03T00:46:27;61.58;;;56.45;;
24445;SDS011;13347;50.984;5.822;2022-10-03T00:49:38;55.03;;;50.30;;
24445;SDS011;13347;50.984;5.822;2022-10-03T00:52:37;53.63;;;48.67;;
24445;SDS011;13347;50.984;5.822;2022-10-03T00:55:29;51.38;;;47.00;;
24445;SDS011;13347;50.984;5.822;2022-10-03T00:58:09;54.35;;;49.83;;
24445;SDS011;13347;50.984;5.822;2022-10-03T01:00:56;45.92;;;41.88;;
24445;SDS011;13347;50.984;5.822;2022-10-03T01:03:45;53.97;;;49.25;;
24445;SDS011;13347;50.984;5.822;2022-10-03T01:06:26;47.67;;;43.03;;
24445;SDS011;13347;50.984;5.822;2022-10-03T01:09:03;49.33;;;44.85;;
24445;SDS011;13347;50.984;5.822;2022-10-03T01:11:49;50.53;;;46.00;;
24445;SDS011;13347;50.984;5.822;2022-10-03T01:14:32;49.50;;;45.22;;
24445;SDS011;13347;50.984;5.822;2022-10-03T01:17:15;72.95;;;67.05;;
24445;SDS011;13347;50.984;5.822;2022-10-03T01:20:09;43.67;;;39.58;;
24445;SDS011;13347;50.984;5.822;2022-10-03T01:26:02;67.50;;;62.42;;
24445;SDS011;13347;50.984;5.822;2022-10-03T01:28:47;41.15;;;36.75;;
24445;SDS011;13347;50.984;5.822;2022-10-03T01:31:39;45.38;;;41.25;;
24445;SDS011;13347;50.984;5.822;2022-10-03T01:34:12;39.17;;;35.42;;
24445;SDS011;13347;50.984;5.822;2022-10-03T01:36:50;42.78;;;38.65;;
24445;SDS011;13347;50.984;5.822;2022-10-03T01:39:25;42.13;;;37.50;;
24445;SDS011;13347;50.984;5.822;2022-10-03T01:41:58;50.20;;;45.50;;
24445;SDS011;13347;50.984;5.822;2022-10-03T01:44:37;38.75;;;32.63;;
24445;SDS011;13347;50.984;5.822;2022-10-03T01:47:15;45.40;;;39.60;;
24445;SDS011;13347;50.984;5.822;2022-10-03T01:49:53;42.28;;;34.28;;
24445;SDS011;13347;50.984;5.822;2022-10-03T01:52:28;45.22;;;40.95;;
24445;SDS011;13347;50.984;5.822;2022-10-03T01:55:06;36.25;;;28.63;;
24445;SDS011;13347;50.984;5.822;2022-10-03T01:57:43;36.20;;;32.03;;
24445;SDS011;13347;50.984;5.822;2022-10-03T02:00:16;41.78;;;29.30;;
24445;SDS011;13347;50.984;5.822;2022-10-03T02:02:46;35.17;;;28.67;;
24445;SDS011;13347;50.984;5.822;2022-10-03T02:05:20;39.65;;;31.40;;
24445;SDS011;13347;50.984;5.822;2022-10-03T02:07:54;41.28;;;31.55;;
24445;SDS011;13347;50.984;5.822;2022-10-03T02:10:32;39.22;;;29.17;;
24445;SDS011;13347;50.984;5.822;2022-10-03T02:13:07;39.08;;;29.67;;
24445;SDS011;13347;50.984;5.822;2022-10-03T02:15:42;38.28;;;32.55;;
24445;SDS011;13347;50.984;5.822;2022-10-03T02:18:22;40.65;;;28.77;;
24445;SDS011;13347;50.984;5.822;2022-10-03T02:20:57;39.92;;;26.58;;
24445;SDS011;13347;50.984;5.822;2022-10-03T02:23:39;41.67;;;29.38;;
24445;SDS011;13347;50.984;5.822;2022-10-03T02:32:17;39.92;;;28.13;;
24445;SDS011;13347;50.984;5.822;2022-10-03T02:35:29;39.35;;;32.45;;
24445;SDS011;13347;50.984;5.822;2022-10-03T02:38:37;39.28;;;27.88;;
24445;SDS011;13347;50.984;5.822;2022-10-03T02:41:21;41.75;;;32.40;;
24445;SDS011;13347;50.984;5.822;2022-10-03T02:50:36;43.17;;;35.17;;
24445;SDS011;13347;50.984;5.822;2022-10-03T03:02:50;43.35;;;31.23;;
24445;SDS011;13347;50.984;5.822;2022-10-03T03:08:54;57.08;;;42.50;;
24445;SDS011;13347;50.984;5.822;2022-10-03T03:11:43;46.83;;;35.85;;
24445;SDS011;13347;50.984;5.822;2022-10-03T03:14:47;53.47;;;35.58;;
24445;SDS011;13347;50.984;5.822;2022-10-03T03:17:38;53.72;;;40.60;;
24445;SDS011;13347;50.984;5.822;2022-10-03T03:20:20;47.20;;;34.28;;
24445;SDS011;13347;50.984;5.822;2022-10-03T03:23:05;48.70;;;31.65;;
24445;SDS011;13347;50.984;5.822;2022-10-03T03:25:54;54.03;;;37.33;;
24445;SDS011;13347;50.984;5.822;2022-10-03T03:28:39;51.05;;;30.42;;
24445;SDS011;13347;50.984;5.822;2022-10-03T03:31:13;49.03;;;33.83;;
24445;SDS011;13347;50.984;5.822;2022-10-03T03:33:49;52.60;;;43.50;;
24445;SDS011;13347;50.984;5.822;2022-10-03T03:36:27;57.97;;;35.33;;
24445;SDS011;13347;50.984;5.822;2022-10-03T03:39:04;57.90;;;36.90;;
24445;SDS011;13347;50.984;5.822;2022-10-03T03:44:46;53.95;;;34.08;;
24445;SDS011;13347;50.984;5.822;2022-10-03T03:47:43;58.83;;;32.90;;
24445;SDS011;13347;50.984;5.822;2022-10-03T03:53:28;51.10;;;34.10;;
24445;SDS011;13347;50.984;5.822;2022-10-03T03:56:20;62.53;;;34.20;;
24445;SDS011;13347;50.984;5.822;2022-10-03T03:59:11;61.70;;;32.55;;
24445;SDS011;13347;50.984;5.822;2022-10-03T04:04:38;59.35;;;33.35;;
24445;SDS011;13347;50.984;5.822;2022-10-03T04:07:24;56.13;;;32.92;;
24445;SDS011;13347;50.984;5.822;2022-10-03T04:10:06;61.70;;;34.92;;
24445;SDS011;13347;50.984;5.822;2022-10-03T04:12:51;59.85;;;42.33;;
24445;SDS011;13347;50.984;5.822;2022-10-03T04:15:33;53.25;;;32.88;;
24445;SDS011;13347;50.984;5.822;2022-10-03T04:18:23;65.40;;;36.97;;
24445;SDS011;13347;50.984;5.822;2022-10-03T04:21:36;57.65;;;36.05;;
24445;SDS011;13347;50.984;5.822;2022-10-03T04:27:53;61.80;;;34.35;;
24445;SDS011;13347;50.984;5.822;2022-10-03T04:30:37;65.63;;;35.67;;
24445;SDS011;13347;50.984;5.822;2022-10-03T04:33:22;66.72;;;42.10;;
24445;SDS011;13347;50.984;5.822;2022-10-03T04:36:12;62.63;;;38.17;;
24445;SDS011;13347;50.984;5.822;2022-10-03T04:38:53;64.82;;;36.20;;
24445;SDS011;13347;50.984;5.822;2022-10-03T04:41:34;61.20;;;34.78;;
24445;SDS011;13347;50.984;5.822;2022-10-03T04:44:10;60.88;;;34.55;;
24445;SDS011;13347;50.984;5.822;2022-10-03T04:46:49;68.45;;;37.67;;
24445;SDS011;13347;50.984;5.822;2022-10-03T04:49:22;63.28;;;37.28;;
24445;SDS011;13347;50.984;5.822;2022-10-03T04:51:56;69.38;;;44.38;;
24445;SDS011;13347;50.984;5.822;2022-10-03T04:54:30;67.40;;;36.10;;
24445;SDS011;13347;50.984;5.822;2022-10-03T04:57:15;63.08;;;35.72;;
24445;SDS011;13347;50.984;5.822;2022-10-03T04:59:55;66.80;;;40.90;;
24445;SDS011;13347;50.984;5.822;2022-10-03T05:02:41;64.03;;;40.97;;
24445;SDS011;13347;50.984;5.822;2022-10-03T05:05:16;63.83;;;42.97;;
24445;SDS011;13347;50.984;5.822;2022-10-03T05:08:05;66.88;;;42.75;;
24445;SDS011;13347;50.984;5.822;2022-10-03T05:10:54;72.45;;;46.00;;
24445;SDS011;13347;50.984;5.822;2022-10-03T05:13:38;71.70;;;49.08;;
24445;SDS011;13347;50.984;5.822;2022-10-03T05:16:18;70.50;;;58.33;;
24445;SDS011;13347;50.984;5.822;2022-10-03T05:18:52;70.95;;;53.92;;
24445;SDS011;13347;50.984;5.822;2022-10-03T05:21:29;77.00;;;56.38;;
24445;SDS011;13347;50.984;5.822;2022-10-03T05:24:04;76.18;;;51.80;;
24445;SDS011;13347;50.984;5.822;2022-10-03T05:26:45;77.10;;;58.83;;
24445;SDS011;13347;50.984;5.822;2022-10-03T05:29:20;76.15;;;53.90;;
24445;SDS011;13347;50.984;5.822;2022-10-03T05:32:04;75.80;;;49.15;;
24445;SDS011;13347;50.984;5.822;2022-10-03T05:34:43;72.53;;;44.65;;
24445;SDS011;13347;50.984;5.822;2022-10-03T05:37:34;70.07;;;38.80;;
24445;SDS011;13347;50.984;5.822;2022-10-03T05:40:17;73.22;;;39.83;;
24445;SDS011;13347;50.984;5.822;2022-10-03T05:42:51;73.10;;;43.75;;
24445;SDS011;13347;50.984;5.822;2022-10-03T05:45:28;79.00;;;40.60;;
24445;SDS011;13347;50.984;5.822;2022-10-03T05:48:12;74.68;;;46.78;;
24445;SDS011;13347;50.984;5.822;2022-10-03T05:54:02;71.15;;;40.35;;
24445;SDS011;13347;50.984;5.822;2022-10-03T05:56:49;68.18;;;37.15;;
24445;SDS011;13347;50.984;5.822;2022-10-03T05:59:35;72.80;;;39.20;;
24445;SDS011;13347;50.984;5.822;2022-10-03T06:02:28;70.55;;;38.08;;
24445;SDS011;13347;50.984;5.822;2022-10-03T06:05:25;93.07;;;82.78;;
24445;SDS011;13347;50.984;5.822;2022-10-03T06:08:09;69.35;;;38.00;;
24445;SDS011;13347;50.984;5.822;2022-10-03T06:11:02;74.15;;;42.88;;
24445;SDS011;13347;50.984;5.822;2022-10-03T06:13:47;65.78;;;38.88;;
24445;SDS011;13347;50.984;5.822;2022-10-03T06:16:36;66.50;;;35.80;;
24445;SDS011;13347;50.984;5.822;2022-10-03T06:19:17;62.20;;;36.83;;
24445;SDS011;13347;50.984;5.822;2022-10-03T06:28:44;67.53;;;37.78;;
24445;SDS011;13347;50.984;5.822;2022-10-03T06:38:17;62.47;;;41.70;;
24445;SDS011;13347;50.984;5.822;2022-10-03T06:47:41;57.53;;;34.22;;
24445;SDS011;13347;50.984;5.822;2022-10-03T06:56:24;55.35;;;42.08;;
24445;SDS011;13347;50.984;5.822;2022-10-03T06:59:40;56.58;;;42.78;;
24445;SDS011;13347;50.984;5.822;2022-10-03T07:02:27;54.63;;;38.08;;
24445;SDS011;13347;50.984;5.822;2022-10-03T07:11:22;56.72;;;42.97;;
24445;SDS011;13347;50.984;5.822;2022-10-03T07:14:12;61.72;;;55.67;;
24445;SDS011;13347;50.984;5.822;2022-10-03T07:17:31;67.22;;;61.47;;
24445;SDS011;13347;50.984;5.822;2022-10-03T07:20:23;87.60;;;81.60;;
24445;SDS011;13347;50.984;5.822;2022-10-03T07:23:24;64.85;;;59.95;;
24445;SDS011;13347;50.984;5.822;2022-10-03T07:26:24;41.05;;;36.70;;
24445;SDS011;13347;50.984;5.822;2022-10-03T07:29:31;37.50;;;33.72;;
24445;SDS011;13347;50.984;5.822;2022-10-03T07:32:22;37.33;;;33.85;;
24445;SDS011;13347;50.984;5.822;2022-10-03T07:35:09;50.13;;;45.67;;
24445;SDS011;13347;50.984;5.822;2022-10-03T07:38:36;104.80;;;98.85;;
24445;SDS011;13347;50.984;5.822;2022-10-03T07:44:22;56.28;;;52.63;;
24445;SDS011;13347;50.984;5.822;2022-10-03T07:47:36;136.40;;;129.18;;
24445;SDS011;13347;50.984;5.822;2022-10-03T07:59:52;16.23;;;14.52;;
24445;SDS011;13347;50.984;5.822;2022-10-03T08:03:07;19.00;;;14.98;;
24445;SDS011;13347;50.984;5.822;2022-10-03T08:09:00;41.17;;;38.42;;
24445;SDS011;13347;50.984;5.822;2022-10-03T08:15:18;89.53;;;84.45;;
24445;SDS011;13347;50.984;5.822;2022-10-03T08:18:11;70.38;;;66.22;;
24445;SDS011;13347;50.984;5.822;2022-10-03T08:21:10;89.22;;;84.32;;
24445;SDS011;13347;50.984;5.822;2022-10-03T08:26:56;90.00;;;84.80;;
24445;SDS011;13347;50.984;5.822;2022-10-03T08:32:35;180.48;;;171.35;;
24445;SDS011;13347;50.984;5.822;2022-10-03T08:35:24;341.88;;;325.17;;
24445;SDS011;13347;50.984;5.822;2022-10-03T08:47:16;238.45;;;227.15;;
24445;SDS011;13347;50.984;5.822;2022-10-03T08:56:20;28.33;;;26.10;;
24445;SDS011;13347;50.984;5.822;2022-10-03T08:59:03;30.73;;;28.75;;
24445;SDS011;13347;50.984;5.822;2022-10-03T09:04:53;31.08;;;28.88;;
24445;SDS011;13347;50.984;5.822;2022-10-03T09:10:56;60.03;;;56.92;;
24445;SDS011;13347;50.984;5.822;2022-10-03T09:14:04;76.05;;;72.10;;
24445;SDS011;13347;50.984;5.822;2022-10-03T09:17:01;86.63;;;82.20;;
24445;SDS011;13347;50.984;5.822;2022-10-03T09:20:06;149.57;;;142.48;;
24445;SDS011;13347;50.984;5.822;2022-10-03T09:23:05;124.47;;;118.18;;
24445;SDS011;13347;50.984;5.822;2022-10-03T09:25:55;60.63;;;57.22;;
24445;SDS011;13347;50.984;5.822;2022-10-03T09:28:37;69.50;;;65.88;;
24445;SDS011;13347;50.984;5.822;2022-10-03T09:31:28;93.78;;;89.15;;
24445;SDS011;13347;50.984;5.822;2022-10-03T09:34:26;85.70;;;81.43;;
24445;SDS011;13347;50.984;5.822;2022-10-03T09:37:24;97.88;;;93.10;;
24445;SDS011;13347;50.984;5.822;2022-10-03T09:40:25;96.78;;;92.28;;
24445;SDS011;13347;50.984;5.822;2022-10-03T09:46:27;93.90;;;89.32;;
24445;SDS011;13347;50.984;5.822;2022-10-03T09:49:38;108.65;;;103.57;;
24445;SDS011;13347;50.984;5.822;2022-10-03T09:52:32;107.18;;;102.03;;
24445;SDS011;13347;50.984;5.822;2022-10-03T10:01:13;159.95;;;152.65;;
24445;SDS011;13347;50.984;5.822;2022-10-03T10:04:09;158.63;;;150.40;;
24445;SDS011;13347;50.984;5.822;2022-10-03T10:07:08;166.07;;;158.27;;
24445;SDS011;13347;50.984;5.822;2022-10-03T10:13:16;161.63;;;154.05;;
24445;SDS011;13347;50.984;5.822;2022-10-03T10:19:07;169.57;;;161.55;;
24445;SDS011;13347;50.984;5.822;2022-10-03T10:25:19;263.75;;;250.48;;
24445;SDS011;13347;50.984;5.822;2022-10-03T10:31:34;196.98;;;188.07;;
24445;SDS011;13347;50.984;5.822;2022-10-03T10:34:46;235.65;;;224.70;;
24445;SDS011;13347;50.984;5.822;2022-10-03T10:37:58;279.15;;;266.35;;
24445;SDS011;13347;50.984;5.822;2022-10-03T10:43:57;262.85;;;250.93;;
24445;SDS011;13347;50.984;5.822;2022-10-03T10:47:10;333.95;;;318.33;;
24445;SDS011;13347;50.984;5.822;2022-10-03T10:56:26;1999.90;;;999.90;;
24445;SDS011;13347;50.984;5.822;2022-10-03T11:02:47;1999.90;;;999.90;;
24445;SDS011;13347;50.984;5.822;2022-10-03T11:09:08;1999.90;;;999.90;;
24445;SDS011;13347;50.984;5.822;2022-10-03T11:12:14;1999.90;;;999.90;;
24445;SDS011;13347;50.984;5.822;2022-10-03T11:18:35;293.40;;;280.23;;
24445;SDS011;13347;50.984;5.822;2022-10-03T11:37:39;259.45;;;248.02;;
24445;SDS011;13347;50.984;5.822;2022-10-03T11:40:19;288.60;;;275.33;;
24445;SDS011;13347;50.984;5.822;2022-10-03T11:43:02;283.42;;;270.80;;
24445;SDS011;13347;50.984;5.822;2022-10-03T11:45:59;216.35;;;206.10;;
24445;SDS011;13347;50.984;5.822;2022-10-03T11:48:42;221.77;;;212.18;;
24445;SDS011;13347;50.984;5.822;2022-10-03T11:51:34;225.18;;;215.38;;
24445;SDS011;13347;50.984;5.822;2022-10-03T11:54:09;254.82;;;243.63;;
24445;SDS011;13347;50.984;5.822;2022-10-03T11:56:47;314.55;;;300.15;;
24445;SDS011;13347;50.984;5.822;2022-10-03T11:59:26;1999.90;;;999.90;;
24445;SDS011;13347;50.984;5.822;2022-10-03T12:02:07;1999.90;;;999.90;;
24445;SDS011;13347;50.984;5.822;2022-10-03T12:04:49;1999.90;;;999.90;;
24445;SDS011;13347;50.984;5.822;2022-10-03T12:07:33;1999.90;;;999.90;;
24445;SDS011;13347;50.984;5.822;2022-10-03T12:10:30;1999.90;;;999.90;;
24445;SDS011;13347;50.984;5.822;2022-10-03T12:13:05;907.85;;;619.40;;
24445;SDS011;13347;50.984;5.822;2022-10-03T12:15:40;359.65;;;342.20;;
24445;SDS011;13347;50.984;5.822;2022-10-03T12:18:13;260.33;;;248.90;;
24445;SDS011;13347;50.984;5.822;2022-10-03T12:23:47;289.65;;;276.67;;
24445;SDS011;13347;50.984;5.822;2022-10-03T12:26:26;1999.90;;;999.90;;
24445;SDS011;13347;50.984;5.822;2022-10-03T12:29:08;1999.90;;;999.90;;
24445;SDS011;13347;50.984;5.822;2022-10-03T12:31:38;1999.90;;;999.90;;
24445;SDS011;13347;50.984;5.822;2022-10-03T12:34:18;1999.90;;;999.90;;
24445;SDS011;13347;50.984;5.822;2022-10-03T12:36:59;726.10;;;465.73;;
24445;SDS011;13347;50.984;5.822;2022-10-03T12:40:01;280.08;;;267.60;;
24445;SDS011;13347;50.984;5.822;2022-10-03T12:42:36;278.27;;;265.95;;
24445;SDS011;13347;50.984;5.822;2022-10-03T12:45:10;264.02;;;252.13;;
24445;SDS011;13347;50.984;5.822;2022-10-03T12:47:51;267.88;;;255.88;;
24445;SDS011;13347;50.984;5.822;2022-10-03T12:50:29;221.60;;;212.00;;
24445;SDS011;13347;50.984;5.822;2022-10-03T12:53:12;267.98;;;256.00;;
24445;SDS011;13347;50.984;5.822;2022-10-03T12:56:10;259.58;;;248.23;;
24445;SDS011;13347;50.984;5.822;2022-10-03T12:58:51;210.50;;;201.18;;
24445;SDS011;13347;50.984;5.822;2022-10-03T13:01:27;242.45;;;231.40;;
24445;SDS011;13347;50.984;5.822;2022-10-03T13:04:07;303.83;;;289.50;;
24445;SDS011;13347;50.984;5.822;2022-10-03T13:06:48;183.30;;;175.13;;
24445;SDS011;13347;50.984;5.822;2022-10-03T13:12:28;184.60;;;176.48;;
24445;SDS011;13347;50.984;5.822;2022-10-03T13:18:31;189.43;;;180.85;;
24445;SDS011;13347;50.984;5.822;2022-10-03T13:21:14;255.00;;;243.48;;
24445;SDS011;13347;50.984;5.822;2022-10-03T13:23:46;227.38;;;217.48;;
24445;SDS011;13347;50.984;5.822;2022-10-03T13:26:19;227.52;;;217.02;;
24445;SDS011;13347;50.984;5.822;2022-10-03T13:31:42;248.75;;;237.23;;
24445;SDS011;13347;50.984;5.822;2022-10-03T13:34:21;353.00;;;336.23;;
24445;SDS011;13347;50.984;5.822;2022-10-03T13:36:53;223.15;;;213.43;;
24445;SDS011;13347;50.984;5.822;2022-10-03T13:39:25;227.77;;;217.75;;
24445;SDS011;13347;50.984;5.822;2022-10-03T13:41:59;207.82;;;198.70;;
24445;SDS011;13347;50.984;5.822;2022-10-03T13:44:36;312.55;;;294.52;;
24445;SDS011;13347;50.984;5.822;2022-10-03T13:47:17;178.73;;;170.75;;
24445;SDS011;13347;50.984;5.822;2022-10-03T13:49:55;183.75;;;175.73;;
24445;SDS011;13347;50.984;5.822;2022-10-03T13:52:30;244.35;;;233.32;;
24445;SDS011;13347;50.984;5.822;2022-10-03T13:55:13;190.88;;;182.35;;
24445;SDS011;13347;50.984;5.822;2022-10-03T13:57:56;223.55;;;213.60;;
24445;SDS011;13347;50.984;5.822;2022-10-03T14:01:01;206.13;;;197.13;;
24445;SDS011;13347;50.984;5.822;2022-10-03T14:03:49;270.38;;;257.88;;
24445;SDS011;13347;50.984;5.822;2022-10-03T14:06:34;219.63;;;210.07;;
24445;SDS011;13347;50.984;5.822;2022-10-03T14:09:18;240.15;;;229.45;;
24445;SDS011;13347;50.984;5.822;2022-10-03T14:12:05;260.33;;;248.35;;
24445;SDS011;13347;50.984;5.822;2022-10-03T14:14:56;364.60;;;344.65;;
24445;SDS011;13347;50.984;5.822;2022-10-03T14:17:35;181.95;;;173.75;;
24445;SDS011;13347;50.984;5.822;2022-10-03T14:20:13;279.65;;;266.65;;
24445;SDS011;13347;50.984;5.822;2022-10-03T14:22:50;177.18;;;169.18;;
24445;SDS011;13347;50.984;5.822;2022-10-03T14:25:27;236.43;;;225.95;;
24445;SDS011;13347;50.984;5.822;2022-10-03T14:28:00;259.95;;;247.88;;
24445;SDS011;13347;50.984;5.822;2022-10-03T14:30:42;206.60;;;197.23;;
24445;SDS011;13347;50.984;5.822;2022-10-03T14:33:18;152.73;;;146.02;;
24445;SDS011;13347;50.984;5.822;2022-10-03T14:35:56;179.45;;;171.48;;
24445;SDS011;13347;50.984;5.822;2022-10-03T14:38:43;128.75;;;123.03;;
24445;SDS011;13347;50.984;5.822;2022-10-03T14:41:45;128.70;;;123.15;;
24445;SDS011;13347;50.984;5.822;2022-10-03T14:44:34;188.00;;;179.48;;
24445;SDS011;13347;50.984;5.822;2022-10-03T14:47:06;129.85;;;124.00;;
24445;SDS011;13347;50.984;5.822;2022-10-03T14:49:36;134.48;;;128.40;;
24445;SDS011;13347;50.984;5.822;2022-10-03T14:52:16;185.02;;;176.95;;
24445;SDS011;13347;50.984;5.822;2022-10-03T14:54:51;89.32;;;85.40;;
24445;SDS011;13347;50.984;5.822;2022-10-03T14:57:25;158.38;;;151.38;;
24445;SDS011;13347;50.984;5.822;2022-10-03T14:59:57;76.22;;;72.47;;
24445;SDS011;13347;50.984;5.822;2022-10-03T15:02:26;70.88;;;67.53;;
24445;SDS011;13347;50.984;5.822;2022-10-03T15:04:59;147.40;;;140.95;;
24445;SDS011;13347;50.984;5.822;2022-10-03T15:07:35;58.67;;;55.67;;
24445;SDS011;13347;50.984;5.822;2022-10-03T15:10:05;74.25;;;70.80;;
24445;SDS011;13347;50.984;5.822;2022-10-03T15:12:36;80.25;;;76.57;;
24445;SDS011;13347;50.984;5.822;2022-10-03T15:15:09;20.23;;;19.00;;
24445;SDS011;13347;50.984;5.822;2022-10-03T15:17:43;178.40;;;170.13;;
24445;SDS011;13347;50.984;5.822;2022-10-03T15:20:12;71.25;;;67.78;;
24445;SDS011;13347;50.984;5.822;2022-10-03T15:22:47;64.15;;;61.08;;
24445;SDS011;13347;50.984;5.822;2022-10-03T15:25:18;90.07;;;86.03;;
24445;SDS011;13347;50.984;5.822;2022-10-03T15:27:49;70.85;;;67.60;;
24445;SDS011;13347;50.984;5.822;2022-10-03T15:30:20;71.68;;;68.28;;
24445;SDS011;13347;50.984;5.822;2022-10-03T15:32:50;59.35;;;56.22;;
24445;SDS011;13347;50.984;5.822;2022-10-03T15:35:22;53.25;;;50.63;;
24445;SDS011;13347;50.984;5.822;2022-10-03T15:37:53;78.50;;;74.88;;
24445;SDS011;13347;50.984;5.822;2022-10-03T15:40:28;50.25;;;47.72;;
24445;SDS011;13347;50.984;5.822;2022-10-03T15:43:01;91.28;;;87.13;;
24445;SDS011;13347;50.984;5.822;2022-10-03T15:45:32;106.03;;;101.03;;
24445;SDS011;13347;50.984;5.822;2022-10-03T15:48:03;86.68;;;82.78;;
24445;SDS011;13347;50.984;5.822;2022-10-03T15:50:37;88.40;;;84.18;;
24445;SDS011;13347;50.984;5.822;2022-10-03T15:53:11;123.97;;;118.25;;
24445;SDS011;13347;50.984;5.822;2022-10-03T15:55:47;104.78;;;99.95;;
24445;SDS011;13347;50.984;5.822;2022-10-03T15:58:16;76.50;;;73.05;;
24445;SDS011;13347;50.984;5.822;2022-10-03T16:00:51;141.23;;;134.60;;
24445;SDS011;13347;50.984;5.822;2022-10-03T16:03:29;83.70;;;79.78;;
24445;SDS011;13347;50.984;5.822;2022-10-03T16:06:02;140.32;;;134.07;;
24445;SDS011;13347;50.984;5.822;2022-10-03T16:08:48;147.20;;;140.65;;
24445;SDS011;13347;50.984;5.822;2022-10-03T16:11:23;88.15;;;84.22;;
24445;SDS011;13347;50.984;5.822;2022-10-03T16:13:55;160.85;;;153.38;;
24445;SDS011;13347;50.984;5.822;2022-10-03T16:16:40;76.57;;;72.97;;
24445;SDS011;13347;50.984;5.822;2022-10-03T16:19:23;80.32;;;76.50;;
24445;SDS011;13347;50.984;5.822;2022-10-03T16:21:55;103.72;;;99.07;;
24445;SDS011;13347;50.984;5.822;2022-10-03T16:24:35;108.28;;;103.18;;
24445;SDS011;13347;50.984;5.822;2022-10-03T16:27:11;113.03;;;107.95;;
24445;SDS011;13347;50.984;5.822;2022-10-03T16:29:43;169.03;;;161.30;;
24445;SDS011;13347;50.984;5.822;2022-10-03T16:32:19;144.80;;;138.13;;
24445;SDS011;13347;50.984;5.822;2022-10-03T16:34:48;143.32;;;136.75;;
24445;SDS011;13347;50.984;5.822;2022-10-03T16:37:17;157.95;;;150.77;;
24445;SDS011;13347;50.984;5.822;2022-10-03T16:39:52;182.55;;;173.93;;
24445;SDS011;13347;50.984;5.822;2022-10-03T16:42:25;197.07;;;188.20;;
24445;SDS011;13347;50.984;5.822;2022-10-03T16:45:02;218.30;;;208.63;;
24445;SDS011;13347;50.984;5.822;2022-10-03T16:47:34;231.95;;;221.50;;
24445;SDS011;13347;50.984;5.822;2022-10-03T16:50:02;255.93;;;244.48;;
24445;SDS011;13347;50.984;5.822;2022-10-03T16:52:50;249.32;;;238.20;;
24445;SDS011;13347;50.984;5.822;2022-10-03T16:55:25;326.20;;;310.65;;
24445;SDS011;13347;50.984;5.822;2022-10-03T16:57:56;333.77;;;317.92;;
24445;SDS011;13347;50.984;5.822;2022-10-03T17:00:26;124.57;;;118.55;;
24445;SDS011;13347;50.984;5.822;2022-10-03T17:02:58;82.43;;;78.33;;
24445;SDS011;13347;50.984;5.822;2022-10-03T17:05:31;114.72;;;108.80;;
24445;SDS011;13347;50.984;5.822;2022-10-03T17:08:07;365.70;;;347.45;;
24445;SDS011;13347;50.984;5.822;2022-10-03T17:10:40;254.73;;;242.23;;
24445;SDS011;13347;50.984;5.822;2022-10-03T17:13:11;41.50;;;39.30;;
24445;SDS011;13347;50.984;5.822;2022-10-03T17:15:43;115.63;;;110.28;;
24445;SDS011;13347;50.984;5.822;2022-10-03T17:18:20;242.10;;;230.63;;
24445;SDS011;13347;50.984;5.822;2022-10-03T17:20:52;398.27;;;377.75;;
24445;SDS011;13347;50.984;5.822;2022-10-03T17:23:32;512.80;;;484.35;;
24445;SDS011;13347;50.984;5.822;2022-10-03T17:26:05;640.83;;;602.38;;
24445;SDS011;13347;50.984;5.822;2022-10-03T17:28:37;697.55;;;653.80;;
24445;SDS011;13347;50.984;5.822;2022-10-03T17:31:17;685.03;;;639.97;;
24445;SDS011;13347;50.984;5.822;2022-10-03T17:33:54;204.30;;;192.25;;
24445;SDS011;13347;50.984;5.822;2022-10-03T17:36:40;206.82;;;194.65;;
24445;SDS011;13347;50.984;5.822;2022-10-03T17:42:34;134.93;;;126.97;;
24445;SDS011;13347;50.984;5.822;2022-10-03T17:45:10;126.80;;;119.47;;
24445;SDS011;13347;50.984;5.822;2022-10-03T17:47:50;117.60;;;111.22;;
24445;SDS011;13347;50.984;5.822;2022-10-03T17:50:22;127.15;;;120.00;;
24445;SDS011;13347;50.984;5.822;2022-10-03T17:52:55;178.32;;;169.20;;
24445;SDS011;13347;50.984;5.822;2022-10-03T17:55:26;319.67;;;304.30;;
24445;SDS011;13347;50.984;5.822;2022-10-03T17:57:59;311.52;;;296.40;;
24445;SDS011;13347;50.984;5.822;2022-10-03T18:03:00;171.30;;;162.73;;
24445;SDS011;13347;50.984;5.822;2022-10-03T18:05:34;115.53;;;109.60;;
24445;SDS011;13347;50.984;5.822;2022-10-03T18:08:05;105.28;;;99.95;;
24445;SDS011;13347;50.984;5.822;2022-10-03T18:10:40;96.85;;;92.18;;
24445;SDS011;13347;50.984;5.822;2022-10-03T18:13:15;92.00;;;87.20;;
24445;SDS011;13347;50.984;5.822;2022-10-03T18:18:47;121.47;;;115.45;;
24445;SDS011;13347;50.984;5.822;2022-10-03T18:21:33;111.70;;;106.07;;
24445;SDS011;13347;50.984;5.822;2022-10-03T18:24:14;117.93;;;112.07;;
24445;SDS011;13347;50.984;5.822;2022-10-03T18:26:53;109.80;;;104.35;;
24445;SDS011;13347;50.984;5.822;2022-10-03T18:29:33;126.65;;;120.43;;
24445;SDS011;13347;50.984;5.822;2022-10-03T18:32:09;112.63;;;106.97;;
24445;SDS011;13347;50.984;5.822;2022-10-03T18:34:41;69.53;;;65.88;;
24445;SDS011;13347;50.984;5.822;2022-10-03T18:37:16;79.47;;;75.18;;
24445;SDS011;13347;50.984;5.822;2022-10-03T18:39:58;82.35;;;78.15;;
24445;SDS011;13347;50.984;5.822;2022-10-03T18:42:28;86.72;;;82.32;;
24445;SDS011;13347;50.984;5.822;2022-10-03T18:44:58;83.75;;;79.57;;
24445;SDS011;13347;50.984;5.822;2022-10-03T18:47:26;78.25;;;74.10;;
24445;SDS011;13347;50.984;5.822;2022-10-03T18:50:01;82.22;;;78.07;;
24445;SDS011;13347;50.984;5.822;2022-10-03T18:52:39;63.15;;;59.63;;
24445;SDS011;13347;50.984;5.822;2022-10-03T18:55:13;49.65;;;46.67;;
24445;SDS011;13347;50.984;5.822;2022-10-03T18:57:45;66.50;;;62.90;;
24445;SDS011;13347;50.984;5.822;2022-10-03T19:00:26;56.45;;;53.38;;
24445;SDS011;13347;50.984;5.822;2022-10-03T19:02:58;62.88;;;59.50;;
24445;SDS011;13347;50.984;5.822;2022-10-03T19:05:29;55.92;;;52.55;;
24445;SDS011;13347;50.984;5.822;2022-10-03T19:08:00;65.38;;;61.88;;